Terminal Aerodrome Forecast
Issued by NWS San Angelo, TX

Home | Current Version | Previous Version | Text Only | Print | Product List | Glossary On
Versions: 1 2 3 4 5 6 7 8 9 10 11 12 13 14 15 16
108
FTUS44 KSJT 301732
TAFABI
TAF
KABI 301732Z 3018/3118 18010KT P6SM SCT070
      TEMPO 3018/3020 BKN060
     FM310200 16009KT P6SM SKC
     FM311500 20013G20KT P6SM SKC=

USA.gov is the U.S. government's official web portal to all federal, state and local government web resources and services.